createdAt,value
2022-12-11T00:00:29.583Z,1.83
2022-12-11T00:02:34.204Z,1.84
2022-12-11T00:04:39.114Z,1.86
2022-12-11T00:06:43.891Z,1.79
2022-12-11T00:08:49.036Z,1.76
2022-12-11T00:10:53.654Z,1.65
2022-12-11T00:12:58.521Z,1.63
2022-12-11T00:15:06.158Z,1.64
2022-12-11T00:17:11.029Z,1.57
2022-12-11T00:19:15.833Z,1.59
2022-12-11T00:21:20.630Z,1.69
2022-12-11T00:23:25.432Z,1.76
2022-12-11T00:25:30.242Z,1.82
2022-12-11T00:27:35.025Z,1.89
2022-12-11T00:29:40.296Z,1.89
2022-12-11T00:31:47.722Z,1.95
2022-12-11T00:33:53.838Z,1.99
2022-12-11T00:35:59.540Z,2.05
2022-12-11T00:38:04.301Z,2.08
2022-12-11T00:40:10.698Z,2.07
2022-12-11T00:42:16.212Z,2.04
2022-12-11T00:44:21.035Z,2.02
2022-12-11T00:46:25.900Z,1.91
2022-12-11T00:48:33.363Z,1.79
2022-12-11T00:50:38.744Z,1.59
2022-12-11T00:52:43.547Z,1.54
2022-12-11T00:54:48.440Z,1.45
2022-12-11T00:56:53.471Z,1.44
2022-12-11T00:58:58.278Z,1.35
2022-12-11T01:01:09.018Z,1.42
2022-12-11T01:03:17.070Z,1.53
2022-12-11T01:05:24.587Z,1.68
2022-12-11T01:07:29.492Z,1.69
2022-12-11T01:09:46.693Z,1.62
2022-12-11T01:11:51.627Z,1.54
2022-12-11T01:13:56.379Z,1.48
2022-12-11T01:16:01.747Z,1.47
2022-12-11T01:18:07.005Z,1.27
2022-12-11T01:20:12.153Z,1.22
2022-12-11T01:22:19.497Z,1.26
2022-12-11T01:24:24.397Z,1.35
2022-12-11T01:26:30.736Z,1.41
2022-12-11T01:28:35.602Z,1.44
2022-12-11T01:30:40.549Z,1.45
2022-12-11T01:32:45.761Z,1.45
2022-12-11T01:34:50.299Z,1.34
2022-12-11T01:36:55.319Z,1.23
2022-12-11T01:39:02.681Z,1.20
2022-12-11T01:41:07.811Z,1.17
2022-12-11T01:43:13.961Z,0.98
2022-12-11T01:45:42.086Z,0.87
2022-12-11T01:47:47.221Z,0.91
2022-12-11T01:49:51.846Z,0.83
2022-12-11T01:52:00.892Z,0.79
2022-12-11T01:54:10.675Z,0.89
2022-12-11T01:56:16.128Z,1.07
2022-12-11T01:58:23.597Z,1.21
2022-12-11T02:00:28.320Z,1.34
2022-12-11T02:02:34.289Z,1.45
2022-12-11T02:04:41.816Z,1.48
2022-12-11T02:06:48.699Z,1.56
2022-12-11T02:08:53.464Z,1.50
2022-12-11T02:11:14.338Z,1.54
2022-12-11T02:13:32.696Z,1.60
2022-12-11T02:15:42.361Z,1.69
2022-12-11T02:17:53.947Z,1.74
2022-12-11T02:20:07.380Z,1.77
2022-12-11T02:22:17.092Z,1.79
2022-12-11T02:24:41.027Z,1.65
2022-12-11T02:27:14.265Z,1.47
2022-12-11T02:29:25.918Z,1.34
2022-12-11T02:31:37.491Z,1.26
2022-12-11T02:33:48.224Z,1.15
2022-12-11T02:35:53.715Z,1.08
2022-12-11T02:38:04.337Z,1.03
2022-12-11T02:40:13.901Z,1.04
2022-12-11T02:42:19.258Z,1.02
2022-12-11T02:44:30.254Z,0.90
2022-12-11T02:46:37.607Z,0.84
2022-12-11T02:48:44.694Z,0.74
2022-12-11T02:50:51.634Z,0.71
2022-12-11T02:52:59.402Z,0.78
2022-12-11T02:55:06.289Z,0.76
2022-12-11T02:57:14.921Z,0.65
2022-12-11T02:59:23.522Z,0.54
2022-12-11T03:01:31.406Z,0.51
2022-12-11T03:03:36.399Z,0.52
2022-12-11T03:05:42.278Z,0.51
2022-12-11T03:07:47.875Z,0.46
2022-12-11T03:09:53.089Z,0.45
2022-12-11T03:11:57.637Z,0.36
2022-12-11T03:14:03.383Z,0.35
2022-12-11T03:16:18.961Z,0.40
2022-12-11T03:18:33.795Z,0.38
2022-12-11T03:20:43.993Z,0.35
2022-12-11T03:22:53.476Z,0.37
2022-12-11T03:25:04.854Z,0.38
2022-12-11T03:27:18.445Z,0.45
2022-12-11T03:29:26.229Z,0.51
2022-12-11T03:31:34.740Z,0.63
2022-12-11T03:33:44.706Z,0.67
2022-12-11T03:35:54.783Z,0.65
2022-12-11T03:38:03.393Z,0.65
2022-12-11T03:40:13.845Z,0.62
2022-12-11T03:42:22.264Z,0.58
2022-12-11T03:44:27.947Z,0.50
2022-12-11T03:46:36.260Z,0.39
2022-12-11T03:48:47.583Z,0.30
2022-12-11T03:50:53.529Z,0.23
2022-12-11T03:53:00.995Z,0.25
2022-12-11T03:55:08.290Z,0.26
2022-12-11T03:57:16.884Z,0.20
2022-12-11T03:59:21.727Z,0.26
2022-12-11T04:01:26.512Z,0.31
2022-12-11T04:03:31.495Z,0.23
2022-12-11T04:05:39.200Z,0.21
2022-12-11T04:07:43.995Z,0.16
2022-12-11T04:09:48.924Z,0.07
2022-12-11T04:11:53.762Z,0.04
2022-12-11T04:14:10.784Z,-0.02
2022-12-11T04:16:15.799Z,0.04
2022-12-11T04:18:33.047Z,0.08
2022-12-11T04:21:01.635Z,0.08
2022-12-11T04:23:19.606Z,0.10
2022-12-11T04:25:24.456Z,0.03
2022-12-11T04:27:42.227Z,0.07
2022-12-11T04:29:47.089Z,0.09
2022-12-11T04:31:52.339Z,0.06
2022-12-11T04:33:57.136Z,0.10
2022-12-11T04:36:04.603Z,0.15
2022-12-11T04:38:09.372Z,0.19
2022-12-11T04:40:18.755Z,0.25
2022-12-11T04:42:23.619Z,0.13
2022-12-11T04:44:28.395Z,-0.05
2022-12-11T04:46:33.319Z,-0.03
2022-12-11T04:48:39.121Z,-0.05
2022-12-11T04:50:43.927Z,-0.04
2022-12-11T04:52:52.514Z,-0.07
2022-12-11T04:54:57.362Z,-0.03
2022-12-11T04:57:02.112Z,0.03
2022-12-11T04:59:07.037Z,0.04
2022-12-11T05:01:12.455Z,0.03
2022-12-11T05:03:17.362Z,0.05
2022-12-11T05:05:22.390Z,0.08
2022-12-11T05:07:27.263Z,0.06
2022-12-11T05:09:34.612Z,0.09
2022-12-11T05:11:39.560Z,0.14
2022-12-11T05:13:48.174Z,0.23
2022-12-11T05:15:53.054Z,0.21
2022-12-11T05:17:58.043Z,0.13
2022-12-11T05:20:02.895Z,0.13
2022-12-11T05:22:07.636Z,0.11
2022-12-11T05:24:12.433Z,0.06
2022-12-11T05:26:21.441Z,0.04
2022-12-11T05:28:27.683Z,0.04
2022-12-11T05:30:32.508Z,-0.02
2022-12-11T05:32:37.314Z,-0.01
2022-12-11T05:34:42.323Z,0.02
2022-12-11T05:36:47.383Z,0.02
2022-12-11T05:38:53.208Z,0.05
2022-12-11T05:41:02.251Z,0.12
2022-12-11T05:43:09.663Z,0.15
2022-12-11T05:45:14.607Z,0.21
2022-12-11T05:47:20.342Z,0.25
2022-12-11T05:49:30.652Z,0.21
2022-12-11T05:51:36.834Z,0.24
2022-12-11T05:53:43.249Z,0.33
2022-12-11T05:55:48.056Z,0.32
2022-12-11T05:57:52.852Z,0.35
2022-12-11T06:00:00.169Z,0.38
2022-12-11T06:02:05.177Z,0.38
2022-12-11T06:04:12.148Z,0.42
2022-12-11T06:06:17.816Z,0.48
2022-12-11T06:08:22.754Z,0.48
2022-12-11T06:10:27.618Z,0.50
2022-12-11T06:12:32.742Z,0.47
2022-12-11T06:14:37.598Z,0.35
2022-12-11T06:16:45.072Z,0.25
2022-12-11T06:18:50.318Z,0.11
2022-12-11T06:20:54.851Z,0.03
2022-12-11T06:22:59.643Z,0.00
2022-12-11T06:25:04.610Z,0.01
2022-12-11T06:27:09.479Z,0.01
2022-12-11T06:29:14.460Z,-0.05
2022-12-11T06:31:19.853Z,-0.06
2022-12-11T06:33:27.312Z,-0.06
2022-12-11T06:35:32.954Z,-0.07
2022-12-11T06:37:40.823Z,-0.09
2022-12-11T06:39:45.674Z,-0.16
2022-12-11T06:41:50.455Z,-0.25
2022-12-11T06:43:55.384Z,-0.35
2022-12-11T06:46:03.772Z,-0.36
2022-12-11T06:48:09.870Z,-0.32
2022-12-11T06:50:17.308Z,-0.29
2022-12-11T06:52:22.485Z,-0.35
2022-12-11T06:54:28.569Z,-0.47
2022-12-11T06:56:33.412Z,-0.53
2022-12-11T06:58:39.520Z,-0.51
2022-12-11T07:00:44.430Z,-0.53
2022-12-11T07:02:49.293Z,-0.56
2022-12-11T07:04:55.411Z,-0.55
2022-12-11T07:07:02.886Z,-0.54
2022-12-11T07:09:08.570Z,-0.51
2022-12-11T07:11:15.350Z,-0.42
2022-12-11T07:13:20.253Z,-0.50
2022-12-11T07:15:25.046Z,-0.52
2022-12-11T07:17:31.107Z,-0.53
2022-12-11T07:19:35.928Z,-0.50
2022-12-11T07:21:40.894Z,-0.52
2022-12-11T07:23:48.891Z,-0.63
2022-12-11T07:25:53.786Z,-0.73
2022-12-11T07:27:58.582Z,-0.73
2022-12-11T07:30:03.428Z,-0.80
2022-12-11T07:32:09.231Z,-0.94
2022-12-11T07:34:15.710Z,-1.05
2022-12-11T07:36:20.513Z,-1.08
2022-12-11T07:38:25.282Z,-1.03
2022-12-11T07:40:32.710Z,-0.82
2022-12-11T07:42:41.389Z,-0.66
2022-12-11T07:44:49.832Z,-0.70
2022-12-11T07:46:54.739Z,-0.56
2022-12-11T07:49:00.937Z,-0.47
2022-12-11T07:51:12.864Z,-0.35
2022-12-11T07:53:17.939Z,-0.38
2022-12-11T07:55:22.688Z,-0.39
2022-12-11T07:57:30.425Z,-0.48
2022-12-11T07:59:35.464Z,-0.61
2022-12-11T08:01:42.611Z,-0.55
2022-12-11T08:03:47.619Z,-0.44
2022-12-11T08:05:53.486Z,-0.33
2022-12-11T08:07:58.379Z,-0.28
2022-12-11T08:10:04.291Z,-0.29
2022-12-11T08:12:09.421Z,-0.22
2022-12-11T08:14:18.448Z,-0.14
2022-12-11T08:16:23.536Z,-0.17
2022-12-11T08:18:28.576Z,-0.15
2022-12-11T08:20:33.877Z,-0.01
2022-12-11T08:22:38.764Z,0.14
2022-12-11T08:24:43.606Z,0.32
2022-12-11T08:26:48.572Z,0.45
2022-12-11T08:28:53.768Z,0.58
2022-12-11T08:31:01.262Z,0.49
2022-12-11T08:33:06.655Z,0.27
2022-12-11T08:35:12.613Z,0.17
2022-12-11T08:37:17.646Z,0.22
2022-12-11T08:39:22.506Z,0.22
2022-12-11T08:41:29.005Z,0.13
2022-12-11T08:43:36.175Z,0.11
2022-12-11T08:45:41.487Z,-0.08
2022-12-11T08:47:48.925Z,-0.11
2022-12-11T08:49:53.734Z,-0.18
2022-12-11T08:51:58.695Z,-0.03
2022-12-11T08:54:04.122Z,0.00
2022-12-11T08:56:11.080Z,-0.01
2022-12-11T08:58:15.871Z,0.09
2022-12-11T09:00:21.559Z,0.12
2022-12-11T09:02:26.488Z,0.18
2022-12-11T09:04:34.138Z,0.22
2022-12-11T09:06:38.991Z,0.21
2022-12-11T09:08:50.383Z,0.24
2022-12-11T09:10:57.317Z,0.37
2022-12-11T09:13:02.275Z,0.37
2022-12-11T09:15:08.055Z,0.34
2022-12-11T09:17:12.864Z,0.21
2022-12-11T09:19:18.567Z,0.34
2022-12-11T09:21:28.056Z,0.31
2022-12-11T09:23:32.992Z,0.29
2022-12-11T09:25:37.766Z,0.27
2022-12-11T09:27:49.436Z,0.31
2022-12-11T09:29:54.270Z,0.37
2022-12-11T09:31:59.146Z,0.38
2022-12-11T09:34:08.274Z,0.40
2022-12-11T09:36:13.852Z,0.38
2022-12-11T09:38:21.238Z,0.32
2022-12-11T09:40:26.391Z,0.36
2022-12-11T09:42:35.567Z,0.42
2022-12-11T09:44:46.314Z,0.45
2022-12-11T09:46:51.886Z,0.40
2022-12-11T09:48:57.726Z,0.17
2022-12-11T09:51:09.151Z,0.00
2022-12-11T09:53:19.392Z,0.10
2022-12-11T09:55:29.310Z,0.26
2022-12-11T09:57:44.588Z,0.36
2022-12-11T10:00:05.990Z,0.39
2022-12-11T10:02:25.898Z,0.48
2022-12-11T10:04:41.173Z,0.45
2022-12-11T10:06:51.535Z,0.48
2022-12-11T10:09:06.335Z,0.32
2022-12-11T10:11:34.701Z,0.26
2022-12-11T10:13:46.938Z,0.16
2022-12-11T10:15:57.731Z,0.26
2022-12-11T10:18:05.310Z,0.54
2022-12-11T10:20:22.972Z,0.68
2022-12-11T10:22:32.742Z,0.63
2022-12-11T10:25:12.964Z,0.73
2022-12-11T10:27:20.079Z,0.81
2022-12-11T10:29:24.982Z,0.93
2022-12-11T10:31:41.195Z,1.00
2022-12-11T10:33:56.919Z,0.93
2022-12-11T10:36:02.159Z,1.02
2022-12-11T10:38:18.551Z,1.00
2022-12-11T10:40:24.953Z,0.97
2022-12-11T10:42:32.334Z,1.01
2022-12-11T10:44:37.750Z,1.00
2022-12-11T10:46:42.615Z,1.06
2022-12-11T10:48:53.435Z,0.94
2022-12-11T10:51:05.271Z,0.96
2022-12-11T10:53:24.155Z,0.90
2022-12-11T10:55:32.088Z,0.79
2022-12-11T10:57:42.045Z,0.67
2022-12-11T10:59:49.719Z,0.70
2022-12-11T11:01:54.803Z,0.80
2022-12-11T11:04:03.193Z,0.84
2022-12-11T11:06:10.251Z,0.78
2022-12-11T11:08:19.363Z,0.61
2022-12-11T11:10:24.472Z,0.53
2022-12-11T11:12:30.540Z,0.43
2022-12-11T11:14:37.971Z,0.46
2022-12-11T11:16:44.288Z,0.40
2022-12-11T11:18:55.935Z,0.43
2022-12-11T11:21:01.534Z,0.47
2022-12-11T11:23:16.200Z,0.64
2022-12-11T11:25:23.787Z,0.71
2022-12-11T11:27:34.194Z,0.74
2022-12-11T11:29:41.784Z,0.64
2022-12-11T11:31:46.615Z,0.53
2022-12-11T11:33:58.829Z,0.55
2022-12-11T11:36:06.273Z,0.40
2022-12-11T11:38:20.497Z,0.07
2022-12-11T11:40:30.519Z,0.03
2022-12-11T11:42:46.160Z,0.07
2022-12-11T11:45:05.533Z,0.20
2022-12-11T11:47:17.180Z,0.28
2022-12-11T11:49:29.008Z,0.17
2022-12-11T11:51:38.888Z,0.30
2022-12-11T11:53:43.902Z,0.40
2022-12-11T11:55:57.138Z,0.36
2022-12-11T11:58:08.808Z,0.37
2022-12-11T12:00:28.862Z,0.42
2022-12-11T12:02:38.910Z,0.29
2022-12-11T12:04:44.420Z,0.39
2022-12-11T12:07:12.359Z,0.55
2022-12-11T12:09:29.239Z,0.62
2022-12-11T12:11:40.713Z,0.71
2022-12-11T12:13:52.692Z,0.67
2022-12-11T12:16:02.916Z,0.67
2022-12-11T12:18:18.597Z,0.74
2022-12-11T12:20:33.699Z,0.66
2022-12-11T12:23:00.869Z,0.47
2022-12-11T12:25:18.465Z,0.33
2022-12-11T12:27:51.655Z,0.15
2022-12-11T12:30:01.947Z,0.17
2022-12-11T12:32:17.142Z,0.04
2022-12-11T12:34:35.571Z,-0.04
2022-12-11T12:36:49.110Z,-0.16
2022-12-11T12:38:57.831Z,-0.20
2022-12-11T12:41:14.276Z,-0.23
2022-12-11T12:43:37.237Z,-0.35
2022-12-11T12:45:51.738Z,-0.36
2022-12-11T12:47:59.772Z,-0.35
2022-12-11T12:50:08.055Z,-0.36
2022-12-11T12:52:18.211Z,-0.25
2022-12-11T12:54:27.426Z,-0.20
2022-12-11T12:56:35.145Z,-0.24
2022-12-11T12:58:45.531Z,-0.25
2022-12-11T13:00:50.932Z,-0.14
2022-12-11T13:02:59.245Z,-0.04
2022-12-11T13:05:09.764Z,-0.01
2022-12-11T13:07:18.916Z,-0.07
2022-12-11T13:09:26.552Z,-0.09
2022-12-11T13:11:36.738Z,0.07
2022-12-11T13:13:44.003Z,0.10
2022-12-11T13:15:49.318Z,0.17
2022-12-11T13:17:54.291Z,0.07
2022-12-11T13:20:26.875Z,0.03
2022-12-11T13:22:31.762Z,0.07
2022-12-11T13:24:37.076Z,0.12
2022-12-11T13:26:42.587Z,0.30
2022-12-11T13:28:51.963Z,0.35
2022-12-11T13:31:27.458Z,0.45
2022-12-11T13:33:33.402Z,0.53
2022-12-11T13:35:42.071Z,0.65
2022-12-11T13:37:49.232Z,0.68
2022-12-11T13:39:55.016Z,0.56
2022-12-11T13:42:04.102Z,0.46
2022-12-11T13:44:10.079Z,0.58
2022-12-11T13:46:17.685Z,0.74
2022-12-11T13:48:28.647Z,0.78
2022-12-11T13:50:37.085Z,0.88
2022-12-11T13:52:44.505Z,0.86
2022-12-11T13:54:54.017Z,0.54
2022-12-11T13:57:04.939Z,0.48
2022-12-11T13:59:24.178Z,0.12
2022-12-11T14:01:33.048Z,-0.14
2022-12-11T14:03:38.687Z,-0.28
2022-12-11T14:05:44.776Z,-0.40
2022-12-11T14:07:54.804Z,-0.53
2022-12-11T14:10:05.809Z,-0.57
2022-12-11T14:12:18.627Z,-0.55
2022-12-11T14:14:27.538Z,-0.63
2022-12-11T14:16:33.565Z,-0.62
2022-12-11T14:18:39.597Z,-0.60
2022-12-11T14:20:45.281Z,-0.61
2022-12-11T14:22:53.172Z,-0.62
2022-12-11T14:24:59.764Z,-0.65
2022-12-11T14:27:04.875Z,-0.64
2022-12-11T14:29:09.853Z,-0.75
2022-12-11T14:31:18.854Z,-0.76
2022-12-11T14:33:26.692Z,-0.79
2022-12-11T14:35:38.947Z,-0.79
2022-12-11T14:37:44.613Z,-0.87
2022-12-11T14:39:59.636Z,-0.85
2022-12-11T14:42:07.619Z,-0.83
2022-12-11T14:44:18.306Z,-0.82
2022-12-11T14:46:28.612Z,-0.88
2022-12-11T14:48:38.536Z,-0.88
2022-12-11T14:50:48.726Z,-0.94
2022-12-11T14:52:56.747Z,-0.93
2022-12-11T14:55:10.631Z,-0.92
2022-12-11T14:57:22.171Z,-0.84
2022-12-11T14:59:32.052Z,-0.77
2022-12-11T15:01:39.322Z,-0.86
2022-12-11T15:03:45.235Z,-0.89
2022-12-11T15:05:53.463Z,-0.86
2022-12-11T15:08:01.276Z,-0.77
2022-12-11T15:10:09.184Z,-0.70
2022-12-11T15:12:16.576Z,-0.70
2022-12-11T15:14:24.003Z,-0.65
2022-12-11T15:16:34.233Z,-0.63
2022-12-11T15:18:43.301Z,-0.57
2022-12-11T15:20:54.028Z,-0.60
2022-12-11T15:23:03.387Z,-0.55
2022-12-11T15:25:22.026Z,-0.58
2022-12-11T15:27:33.496Z,-0.62
2022-12-11T15:29:40.887Z,-0.64
2022-12-11T15:31:46.033Z,-0.66
2022-12-11T15:33:50.617Z,-0.69
2022-12-11T15:36:03.925Z,-0.76
2022-12-11T15:38:09.210Z,-0.70
2022-12-11T15:40:17.492Z,-0.68
2022-12-11T15:42:28.225Z,-0.73
2022-12-11T15:44:33.018Z,-0.69
2022-12-11T15:46:39.000Z,-0.60
2022-12-11T15:48:43.949Z,-0.50
2022-12-11T15:50:48.812Z,-0.47
2022-12-11T15:52:55.622Z,-0.62
2022-12-11T15:55:00.522Z,-0.73
2022-12-11T15:57:10.365Z,-0.79
2022-12-11T15:59:15.347Z,-0.72
2022-12-11T16:01:20.923Z,-0.71
2022-12-11T16:03:26.231Z,-0.71
2022-12-11T16:05:30.768Z,-0.95
2022-12-11T16:07:36.553Z,-0.98
2022-12-11T16:09:41.436Z,-0.88
2022-12-11T16:11:46.371Z,-0.79
2022-12-11T16:13:53.761Z,-0.82
2022-12-11T16:15:58.654Z,-0.84
2022-12-11T16:18:05.212Z,-0.89
2022-12-11T16:20:13.438Z,-0.76
2022-12-11T16:22:19.605Z,-0.73
2022-12-11T16:24:24.471Z,-0.71
2022-12-11T16:26:29.411Z,-0.78
2022-12-11T16:28:34.285Z,-0.76
2022-12-11T16:30:43.537Z,-0.81
2022-12-11T16:32:48.569Z,-0.78
2022-12-11T16:34:54.189Z,-0.75
2022-12-11T16:37:01.498Z,-0.71
2022-12-11T16:39:06.765Z,-0.71
2022-12-11T16:41:11.693Z,-0.77
2022-12-11T16:43:16.722Z,-0.76
2022-12-11T16:45:23.725Z,-0.82
2022-12-11T16:47:32.739Z,-0.78
2022-12-11T16:49:37.537Z,-0.85
2022-12-11T16:51:42.290Z,-0.71
2022-12-11T16:53:47.390Z,-0.68
2022-12-11T16:55:52.529Z,-0.71
2022-12-11T16:57:57.643Z,-0.71
2022-12-11T17:00:02.251Z,-0.78
2022-12-11T17:02:07.032Z,-0.77
2022-12-11T17:04:14.497Z,-0.77
2022-12-11T17:06:20.443Z,-0.76
2022-12-11T17:08:25.469Z,-0.67
2022-12-11T17:10:30.209Z,-0.69
2022-12-11T17:12:37.183Z,-0.68
2022-12-11T17:14:42.217Z,-0.58
2022-12-11T17:16:48.194Z,-0.51
2022-12-11T17:18:53.624Z,-0.49
2022-12-11T17:21:01.040Z,-0.50
2022-12-11T17:23:05.855Z,-0.52
2022-12-11T17:25:12.265Z,-0.50
2022-12-11T17:27:17.291Z,-0.59
2022-12-11T17:29:22.504Z,-0.54
2022-12-11T17:31:27.826Z,-0.57
2022-12-11T17:33:32.623Z,-0.57
2022-12-11T17:35:37.552Z,-0.53
2022-12-11T17:37:45.099Z,-0.55
2022-12-11T17:39:50.119Z,-0.60
2022-12-11T17:41:54.991Z,-0.59
2022-12-11T17:44:00.084Z,-0.57
2022-12-11T17:46:05.656Z,-0.54
2022-12-11T17:48:10.603Z,-0.51
2022-12-11T17:50:15.454Z,-0.47
2022-12-11T17:52:20.280Z,-0.55
2022-12-11T17:54:27.685Z,-0.55
2022-12-11T17:56:34.814Z,-0.56
2022-12-11T17:58:39.640Z,-0.56
2022-12-11T18:00:47.253Z,-0.62
2022-12-11T18:02:52.229Z,-0.63
2022-12-11T18:04:57.237Z,-0.61
2022-12-11T18:07:02.024Z,-0.58
2022-12-11T18:09:07.684Z,-0.62
2022-12-11T18:11:17.852Z,-0.60
2022-12-11T18:13:23.365Z,-0.64
2022-12-11T18:15:28.480Z,-0.56
2022-12-11T18:17:33.325Z,-0.49
2022-12-11T18:19:44.401Z,-0.46
2022-12-11T18:21:51.308Z,-0.43
2022-12-11T18:23:56.290Z,-0.42
2022-12-11T18:26:01.715Z,-0.41
2022-12-11T18:28:10.209Z,-0.39
2022-12-11T18:30:16.977Z,-0.32
2022-12-11T18:32:22.394Z,-0.32
2022-12-11T18:34:27.487Z,-0.35
2022-12-11T18:36:32.808Z,-0.30
2022-12-11T18:38:38.163Z,-0.31
2022-12-11T18:40:43.621Z,-0.27
2022-12-11T18:42:48.623Z,-0.26
2022-12-11T18:44:56.194Z,-0.21
2022-12-11T18:47:01.090Z,-0.19
2022-12-11T18:49:05.890Z,-0.10
2022-12-11T18:51:12.706Z,0.02
2022-12-11T18:53:18.323Z,0.06
2022-12-11T18:55:23.232Z,-0.13
2022-12-11T18:57:28.142Z,-0.10
2022-12-11T18:59:32.936Z,-0.01
2022-12-11T19:01:40.415Z,0.11
2022-12-11T19:03:45.493Z,0.11
2022-12-11T19:05:50.282Z,0.12
2022-12-11T19:07:55.122Z,0.11
2022-12-11T19:09:59.957Z,0.06
2022-12-11T19:12:05.045Z,0.06
2022-12-11T19:14:10.641Z,0.09
2022-12-11T19:16:19.838Z,0.13
2022-12-11T19:18:27.613Z,0.08
2022-12-11T19:20:48.735Z,0.02
2022-12-11T19:22:54.863Z,0.05
2022-12-11T19:24:59.723Z,0.09
2022-12-11T19:27:09.967Z,0.11
2022-12-11T19:29:23.653Z,0.08
2022-12-11T19:31:30.768Z,-0.06
2022-12-11T19:33:38.375Z,-0.12
2022-12-11T19:35:43.482Z,-0.11
2022-12-11T19:37:50.608Z,-0.01
2022-12-11T19:39:55.652Z,0.02
2022-12-11T19:42:00.481Z,-0.04
2022-12-11T19:44:05.354Z,-0.12
2022-12-11T19:46:11.580Z,-0.13
2022-12-11T19:48:16.554Z,-0.04
2022-12-11T19:50:23.949Z,0.02
2022-12-11T19:52:28.845Z,0.00
2022-12-11T19:54:33.610Z,-0.01
2022-12-11T19:56:38.951Z,-0.01
2022-12-11T19:58:43.866Z,-0.04
2022-12-11T20:00:50.271Z,0.01
2022-12-11T20:02:55.299Z,-0.01
2022-12-11T20:05:01.188Z,-0.05
2022-12-11T20:07:09.487Z,-0.05
2022-12-11T20:09:15.666Z,-0.01
2022-12-11T20:11:20.834Z,-0.05
2022-12-11T20:13:25.696Z,-0.05
2022-12-11T20:15:31.928Z,0.02
2022-12-11T20:17:38.100Z,-0.08
2022-12-11T20:19:43.521Z,-0.07
2022-12-11T20:21:48.310Z,-0.18
2022-12-11T20:23:56.025Z,-0.19
2022-12-11T20:26:00.849Z,-0.35
2022-12-11T20:28:05.815Z,-0.37
2022-12-11T20:30:11.739Z,-0.37
2022-12-11T20:32:16.953Z,-0.40
2022-12-11T20:34:22.739Z,-0.38
2022-12-11T20:36:28.360Z,-0.50
2022-12-11T20:38:34.554Z,-0.48
2022-12-11T20:40:42.107Z,-0.49
2022-12-11T20:42:46.947Z,-0.56
2022-12-11T20:44:51.911Z,-0.50
2022-12-11T20:46:56.667Z,-0.37
2022-12-11T20:49:01.802Z,-0.47
2022-12-11T20:51:06.934Z,-0.53
2022-12-11T20:53:13.663Z,-0.61
2022-12-11T20:55:18.562Z,-0.64
2022-12-11T20:57:26.083Z,-0.66
2022-12-11T20:59:30.886Z,-0.73
2022-12-11T21:01:35.995Z,-0.66
2022-12-11T21:03:42.267Z,-0.69
2022-12-11T21:05:49.030Z,-0.72
2022-12-11T21:07:56.342Z,-0.72
2022-12-11T21:10:01.162Z,-0.69
2022-12-11T21:12:06.356Z,-0.59
2022-12-11T21:14:13.875Z,-0.57
2022-12-11T21:16:18.706Z,-0.53
2022-12-11T21:18:23.547Z,-0.66
2022-12-11T21:20:28.693Z,-0.60
2022-12-11T21:22:34.091Z,-0.68
2022-12-11T21:24:39.105Z,-0.66
2022-12-11T21:26:43.722Z,-0.66
2022-12-11T21:28:48.514Z,-0.60
2022-12-11T21:30:55.948Z,-0.58
2022-12-11T21:33:01.262Z,-0.50
2022-12-11T21:35:06.157Z,-0.48
2022-12-11T21:37:11.108Z,-0.52
2022-12-11T21:39:16.875Z,-0.55
2022-12-11T21:41:24.144Z,-0.52
2022-12-11T21:43:28.978Z,-0.54
2022-12-11T21:46:00.467Z,-0.48
2022-12-11T21:48:06.273Z,-0.44
2022-12-11T21:50:11.410Z,-0.49
2022-12-11T21:52:16.360Z,-0.51
2022-12-11T21:54:21.717Z,-0.42
2022-12-11T21:56:30.590Z,-0.44
2022-12-11T21:58:36.048Z,-0.40
2022-12-11T22:00:41.618Z,-0.47
2022-12-11T22:02:46.496Z,-0.40
2022-12-11T22:04:54.032Z,-0.38
2022-12-11T22:06:59.858Z,-0.43
2022-12-11T22:09:05.263Z,-0.50
2022-12-11T22:11:10.461Z,-0.51
2022-12-11T22:13:15.023Z,-0.57
2022-12-11T22:15:19.868Z,-0.61
2022-12-11T22:17:24.740Z,-0.68
2022-12-11T22:19:32.670Z,-0.64
2022-12-11T22:21:41.022Z,-0.59
2022-12-11T22:23:46.570Z,-0.51
2022-12-11T22:25:51.966Z,-0.49
2022-12-11T22:27:56.760Z,-0.48
2022-12-11T22:30:01.571Z,-0.52
2022-12-11T22:32:06.689Z,-0.45
2022-12-11T22:34:11.461Z,-0.47
2022-12-11T22:36:17.898Z,-0.45
2022-12-11T22:38:26.625Z,-0.47
2022-12-11T22:40:32.425Z,-0.39
2022-12-11T22:42:37.239Z,-0.33
2022-12-11T22:44:42.580Z,-0.31
2022-12-11T22:46:50.304Z,-0.36
2022-12-11T22:48:56.043Z,-0.37
2022-12-11T22:51:00.843Z,-0.32
2022-12-11T22:53:06.213Z,-0.33
2022-12-11T22:55:14.872Z,-0.37
2022-12-11T22:57:19.830Z,-0.40
2022-12-11T22:59:24.708Z,-0.42
2022-12-11T23:01:30.818Z,-0.42
2022-12-11T23:03:35.607Z,-0.38
2022-12-11T23:05:43.385Z,-0.32
2022-12-11T23:07:48.275Z,-0.33
2022-12-11T23:09:53.132Z,-0.31
2022-12-11T23:12:01.722Z,-0.26
2022-12-11T23:14:07.539Z,-0.26
2022-12-11T23:16:13.366Z,-0.35
2022-12-11T23:18:18.131Z,-0.31
2022-12-11T23:20:23.287Z,-0.33
2022-12-11T23:22:28.039Z,-0.34
2022-12-11T23:24:34.052Z,-0.35
2022-12-11T23:26:39.644Z,-0.31
2022-12-11T23:28:47.698Z,-0.29
2022-12-11T23:30:52.519Z,-0.29
2022-12-11T23:32:57.368Z,-0.29
2022-12-11T23:35:02.152Z,-0.32
2022-12-11T23:37:07.144Z,-0.26
2022-12-11T23:39:12.356Z,-0.24
2022-12-11T23:41:19.335Z,-0.22
2022-12-11T23:43:24.700Z,-0.15
2022-12-11T23:45:32.170Z,-0.07
2022-12-11T23:47:36.944Z,-0.01
2022-12-11T23:49:41.754Z,-0.01
2022-12-11T23:51:46.576Z,0.02
2022-12-11T23:53:52.026Z,-0.07
2022-12-11T23:55:57.238Z,-0.06
2022-12-11T23:58:01.777Z,-0.21
